This is the latest recevied weather packets stored in our database for station/object OE3PDB-10. If no packets are shown the sender has not sent any weather packets the latest 1 day(s).
| Time | Temp. | Humidity | Pressure | Rain* | Wind** | Luminosity | Snow |
|---|---|---|---|---|---|---|---|
| 1777995644 | 23.89° C | 37% | 1111 hPa | 0 mm | 0 m/s | - | - |
| 1777995044 | 23.89° C | 35% | 1111 hPa | 0 mm | 0 m/s | - | - |
| 1777994444 | 24.44° C | 34% | 1111 hPa | 0 mm | 0 m/s | - | - |
| 1777993844 | 25° C | 33% | 1111 hPa | 0 mm | 0 m/s | - | - |
| 1777993244 | 25° C | 32% | 1111 hPa | 0 mm | 0 m/s | - | - |
| 1777992644 | 25.56° C | 31% | 1111 hPa | 0 mm | 0 m/s | - | - |
| 1777992044 | 26.11° C | 30% | 1111 hPa | 0 mm | 0 m/s | - | - |
| 1777991444 | 26.67° C | 30% | 1111 hPa | 0 mm | 0 m/s | - | - |
| 1777990844 | 26.67° C | 30% | 1111 hPa | 0 mm | 0 m/s | - | - |
| 1777990244 | 26.67° C | 30% | 1111 hPa | 0 mm | 0 m/s | - | - |
| 1777989644 | 26.67° C | 30% | 1111 hPa | 0 mm | 0 m/s | - | - |
| 1777989044 | 26.67° C | 28% | 1111 hPa | 0 mm | 0 m/s | - | - |
| 1777988444 | 26.67° C | 27% | 1111 hPa | 0 mm | 0 m/s | - | - |
| 1777987844 | 26.67° C | 27% | 1111 hPa | 0 mm | 0 m/s | - | - |
| 1777987244 | 27.22° C | 27% | 1111 hPa | 0 mm | 0 m/s | - | - |
| 1777986644 | 26.67° C | 27% | 1111 hPa | 0 mm | 0 m/s | - | - |
| 1777986044 | 26.67° C | 27% | 1111 hPa | 0 mm | 0 m/s | - | - |
| 1777985444 | 26.11° C | 27% | 1111 hPa | 0 mm | 0 m/s | - | - |
| 1777984844 | 26.11° C | 28% | 1111 hPa | 0 mm | 0 m/s | - | - |
| 1777984244 | 26.11° C | 28% | 1111 hPa | 0 mm | 0 m/s | - | - |
| 1777983644 | 26.11° C | 29% | 1111 hPa | 0 mm | 0 m/s | - | - |
| 1777983044 | 25.56° C | 31% | 1111 hPa | 0 mm | 0 m/s | - | - |
| 1777982444 | 25° C | 32% | 1111 hPa | 0 mm | 0 m/s | - | - |
| 1777981844 | 24.44° C | 35% | 1111 hPa | 0 mm | 0 m/s | - | - |
| 1777981244 | 23.89° C | 37% | 1111 hPa | 0 mm | 0 m/s | - | - |
* Rain latest hour (hover to see other rain measurements)
** Current wind speed in m/s (hover to see current wind gust speed)